createdAt,value
2022-08-27T00:00:04.937Z,8.65
2022-08-27T00:02:34.838Z,6.28
2022-08-27T00:05:04.472Z,9.52
2022-08-27T00:07:33.071Z,12.68
2022-08-27T00:10:03.090Z,18.63
2022-08-27T00:12:32.765Z,17.15
2022-08-27T00:15:01.602Z,17.48
2022-08-27T00:17:30.201Z,17.88
2022-08-27T00:19:58.785Z,18.17
2022-08-27T00:22:27.365Z,15.15
2022-08-27T00:24:56.124Z,12.02
2022-08-27T00:27:26.001Z,12.60
2022-08-27T00:29:54.560Z,14.50
2022-08-27T00:32:23.190Z,13.43
2022-08-27T00:34:51.717Z,14.30
2022-08-27T00:37:20.550Z,11.55
2022-08-27T00:39:49.175Z,12.65
2022-08-27T00:42:17.753Z,11.65
2022-08-27T00:44:47.720Z,12.65
2022-08-27T00:47:20.497Z,15.85
2022-08-27T00:49:53.153Z,11.73
2022-08-27T00:52:26.887Z,17.40
2022-08-27T00:55:02.541Z,13.82
2022-08-27T00:57:31.677Z,13.40
2022-08-27T01:00:01.936Z,12.02
2022-08-27T01:02:31.613Z,11.18
2022-08-27T01:05:03.845Z,10.18
2022-08-27T01:07:36.862Z,9.48
2022-08-27T01:10:08.172Z,12.50
2022-08-27T01:12:37.407Z,15.18
2022-08-27T01:15:11.995Z,8.70
2022-08-27T01:17:44.191Z,9.55
2022-08-27T01:20:17.478Z,12.32
2022-08-27T01:22:54.322Z,10.07
2022-08-27T01:25:25.780Z,11.55
2022-08-27T01:27:58.220Z,11.10
2022-08-27T01:30:27.484Z,11.98
2022-08-27T01:32:56.254Z,10.90
2022-08-27T01:35:25.498Z,9.02
2022-08-27T01:37:57.176Z,9.07
2022-08-27T01:40:27.379Z,11.25
2022-08-27T01:42:58.233Z,9.90
2022-08-27T01:45:29.266Z,13.77
2022-08-27T01:47:58.868Z,11.77
2022-08-27T01:50:30.108Z,7.88
2022-08-27T01:53:02.433Z,7.63
2022-08-27T01:55:32.420Z,9.05
2022-08-27T01:58:01.241Z,8.68
2022-08-27T02:00:33.083Z,7.15
2022-08-27T02:03:02.373Z,9.13
2022-08-27T02:05:31.770Z,13.25
2022-08-27T02:08:13.626Z,12.73
2022-08-27T02:10:45.337Z,17.48
2022-08-27T02:13:14.832Z,24.15
2022-08-27T02:15:45.199Z,32.15
2022-08-27T02:18:14.955Z,31.42
2022-08-27T02:20:45.661Z,34.53
2022-08-27T02:23:14.409Z,34.95
2022-08-27T02:25:46.563Z,36.08
2022-08-27T02:28:15.278Z,37.03
2022-08-27T02:30:44.024Z,37.30
2022-08-27T02:33:13.569Z,36.85
2022-08-27T02:35:44.231Z,34.50
2022-08-27T02:38:14.046Z,37.70
2022-08-27T02:40:44.277Z,38.20
2022-08-27T02:43:15.607Z,33.83
2022-08-27T02:45:44.638Z,33.03
2022-08-27T02:48:13.293Z,32.40
2022-08-27T02:50:43.517Z,33.65
2022-08-27T02:53:12.544Z,34.13
2022-08-27T02:55:41.080Z,35.85
2022-08-27T02:58:12.833Z,35.38
2022-08-27T03:00:41.457Z,34.85
2022-08-27T03:03:10.577Z,36.72
2022-08-27T03:05:39.863Z,36.90
2022-08-27T03:08:08.735Z,38.50
2022-08-27T03:10:37.330Z,37.75
2022-08-27T03:13:05.890Z,40.42
2022-08-27T03:15:35.792Z,42.08
2022-08-27T03:18:18.921Z,38.10
2022-08-27T03:20:49.897Z,43.50
2022-08-27T03:23:19.932Z,44.13
2022-08-27T03:25:51.425Z,45.47
2022-08-27T03:28:23.363Z,44.50
2022-08-27T03:30:58.376Z,44.38
2022-08-27T03:33:27.981Z,42.90
2022-08-27T03:35:56.570Z,42.13
2022-08-27T03:38:25.472Z,43.28
2022-08-27T03:40:54.506Z,48.47
2022-08-27T03:43:24.110Z,44.35
2022-08-27T03:46:00.667Z,45.17
2022-08-27T03:48:31.965Z,45.95
2022-08-27T03:51:05.100Z,43.50
2022-08-27T03:53:33.864Z,39.90
2022-08-27T03:56:02.437Z,42.55
2022-08-27T03:58:31.153Z,41.83
2022-08-27T04:01:01.345Z,45.17
2022-08-27T04:03:29.929Z,46.92
2022-08-27T04:05:59.101Z,43.28
2022-08-27T04:08:28.362Z,44.00
2022-08-27T04:10:57.009Z,42.90
2022-08-27T04:13:25.824Z,44.67
2022-08-27T04:15:56.363Z,44.80
2022-08-27T04:18:26.433Z,44.22
2022-08-27T04:20:55.530Z,43.75
2022-08-27T04:23:24.176Z,40.58
2022-08-27T04:25:52.685Z,42.53
2022-08-27T04:28:21.296Z,41.85
2022-08-27T04:30:49.946Z,45.53
2022-08-27T04:33:18.514Z,46.00
2022-08-27T04:35:48.772Z,45.13
2022-08-27T04:38:18.048Z,47.60
2022-08-27T04:41:04.009Z,47.67
2022-08-27T04:43:32.570Z,45.88
2022-08-27T04:46:01.711Z,47.55
2022-08-27T04:48:30.460Z,46.40
2022-08-27T04:51:00.297Z,46.72
2022-08-27T04:53:29.165Z,43.95
2022-08-27T04:55:58.764Z,44.72
2022-08-27T04:58:27.453Z,43.75
2022-08-27T05:01:01.416Z,43.92
2022-08-27T05:03:30.195Z,40.42
2022-08-27T05:06:04.985Z,45.03
2022-08-27T05:08:34.220Z,43.63
2022-08-27T05:11:03.349Z,44.35
2022-08-27T05:13:31.882Z,45.67
2022-08-27T05:16:02.829Z,45.28
2022-08-27T05:18:34.224Z,44.80
2022-08-27T05:21:08.778Z,40.67
2022-08-27T05:23:41.272Z,40.70
2022-08-27T05:26:09.833Z,39.13
2022-08-27T05:28:38.390Z,38.28
2022-08-27T05:31:09.109Z,32.78
2022-08-27T05:33:39.376Z,35.17
2022-08-27T05:36:15.597Z,36.03
2022-08-27T05:38:44.193Z,30.75
2022-08-27T05:41:14.485Z,30.45
2022-08-27T05:43:49.158Z,33.17
2022-08-27T05:46:20.800Z,32.67
2022-08-27T05:48:50.060Z,30.45
2022-08-27T05:51:26.140Z,26.55
2022-08-27T05:53:57.317Z,30.02
2022-08-27T05:56:28.128Z,30.05
2022-08-27T05:59:14.825Z,29.05
2022-08-27T06:01:46.375Z,28.92
2022-08-27T06:04:17.886Z,29.48
2022-08-27T06:06:49.148Z,26.88
2022-08-27T06:09:19.970Z,26.42
2022-08-27T06:11:48.879Z,25.98
2022-08-27T06:14:17.518Z,24.30
2022-08-27T06:16:46.100Z,24.00
2022-08-27T06:19:14.629Z,24.70
2022-08-27T06:21:43.998Z,21.38
2022-08-27T06:24:14.725Z,21.55
2022-08-27T06:26:44.822Z,21.65
2022-08-27T06:29:14.554Z,21.00
2022-08-27T06:31:43.473Z,27.25
2022-08-27T06:34:12.705Z,24.25
2022-08-27T06:36:42.978Z,22.67
2022-08-27T06:39:15.441Z,24.40
2022-08-27T06:41:45.856Z,21.90
2022-08-27T06:44:14.960Z,28.63
2022-08-27T06:46:44.223Z,22.75
2022-08-27T06:49:14.140Z,27.13
2022-08-27T06:51:47.117Z,23.70
2022-08-27T06:54:19.939Z,21.45
2022-08-27T06:56:49.513Z,23.95
2022-08-27T06:59:20.707Z,20.92
2022-08-27T07:01:51.173Z,20.90
2022-08-27T07:04:22.776Z,20.67
2022-08-27T07:07:00.965Z,25.40
2022-08-27T07:09:32.411Z,24.50
2022-08-27T07:12:02.142Z,21.67
2022-08-27T07:14:35.641Z,22.20
2022-08-27T07:17:10.912Z,22.42
2022-08-27T07:19:41.246Z,23.42
2022-08-27T07:22:10.876Z,20.23
2022-08-27T07:24:40.981Z,19.40
2022-08-27T07:27:09.975Z,23.52
2022-08-27T07:29:38.629Z,18.65
2022-08-27T07:32:07.374Z,20.02
2022-08-27T07:34:35.962Z,24.05
2022-08-27T07:37:04.814Z,18.60
2022-08-27T07:39:33.365Z,19.25
2022-08-27T07:42:20.859Z,19.55
2022-08-27T07:44:49.908Z,17.98
2022-08-27T07:47:18.990Z,16.15
2022-08-27T07:49:48.678Z,17.13
2022-08-27T07:52:17.379Z,15.45
2022-08-27T07:54:45.940Z,18.67
2022-08-27T07:57:15.870Z,16.60
2022-08-27T07:59:44.422Z,18.23
2022-08-27T08:02:13.838Z,14.27
2022-08-27T08:04:42.591Z,15.98
2022-08-27T08:07:11.153Z,14.60
2022-08-27T08:09:39.915Z,14.95
2022-08-27T08:12:08.611Z,14.15
2022-08-27T08:14:38.554Z,16.60
2022-08-27T08:17:10.481Z,15.52
2022-08-27T08:19:40.351Z,15.63
2022-08-27T08:22:09.651Z,15.65
2022-08-27T08:24:38.189Z,14.25
2022-08-27T08:27:07.862Z,14.98
2022-08-27T08:29:38.892Z,15.75
2022-08-27T08:32:08.529Z,13.68
2022-08-27T08:34:37.520Z,16.10
2022-08-27T08:37:07.721Z,13.73
2022-08-27T08:39:37.436Z,13.05
2022-08-27T08:42:08.773Z,12.05
2022-08-27T08:44:45.201Z,12.75
2022-08-27T08:47:16.724Z,13.75
2022-08-27T08:49:55.628Z,15.00
2022-08-27T08:52:39.777Z,12.68
2022-08-27T08:55:36.690Z,17.52
2022-08-27T08:58:14.825Z,14.85
2022-08-27T09:00:47.298Z,14.30
2022-08-27T09:03:18.061Z,13.02
2022-08-27T09:05:49.880Z,13.90
2022-08-27T09:08:37.778Z,14.13
2022-08-27T09:11:16.399Z,16.55
2022-08-27T09:13:49.916Z,16.75
2022-08-27T09:16:19.958Z,16.63
2022-08-27T09:18:52.330Z,18.65
2022-08-27T09:21:32.116Z,18.23
2022-08-27T09:24:11.016Z,19.95
2022-08-27T09:26:41.927Z,19.50
2022-08-27T09:29:19.963Z,20.58
2022-08-27T09:31:55.913Z,19.77
2022-08-27T09:34:25.275Z,20.17
2022-08-27T09:36:59.293Z,19.85
2022-08-27T09:39:36.119Z,19.02
2022-08-27T09:42:05.808Z,17.63
2022-08-27T09:44:47.399Z,16.27
2022-08-27T09:47:20.301Z,17.00
2022-08-27T09:49:49.121Z,17.60
2022-08-27T09:52:32.806Z,17.90
2022-08-27T09:55:07.428Z,17.92
2022-08-27T09:57:40.310Z,18.60
2022-08-27T10:00:15.173Z,15.02
2022-08-27T10:02:53.174Z,26.83
2022-08-27T10:05:29.079Z,16.92
2022-08-27T10:08:03.080Z,16.85
2022-08-27T10:10:41.756Z,22.45
2022-08-27T10:13:17.101Z,16.35
2022-08-27T10:15:58.297Z,19.40
2022-08-27T10:18:41.269Z,20.58
2022-08-27T10:21:20.156Z,21.67
2022-08-27T10:23:57.773Z,22.48
2022-08-27T10:26:33.820Z,20.48
2022-08-27T10:29:13.055Z,21.85
2022-08-27T10:32:01.267Z,21.15
2022-08-27T10:34:43.229Z,21.33
2022-08-27T10:37:25.492Z,22.52
2022-08-27T10:40:14.465Z,23.42
2022-08-27T10:42:52.066Z,22.15
2022-08-27T10:45:41.558Z,20.80
2022-08-27T10:48:20.015Z,21.40
2022-08-27T10:50:54.554Z,21.67
2022-08-27T10:53:31.185Z,22.80
2022-08-27T10:56:10.563Z,22.83
2022-08-27T10:58:58.823Z,22.42
2022-08-27T11:01:38.194Z,22.42
2022-08-27T11:04:10.700Z,21.25
2022-08-27T11:06:45.690Z,21.25
2022-08-27T11:09:18.238Z,20.77
2022-08-27T11:12:13.920Z,21.90
2022-08-27T11:14:46.534Z,19.02
2022-08-27T11:17:19.814Z,21.52
2022-08-27T11:19:55.009Z,20.58
2022-08-27T11:22:30.738Z,18.98
2022-08-27T11:25:06.804Z,18.00
2022-08-27T11:27:36.965Z,18.80
2022-08-27T11:30:10.859Z,18.58
2022-08-27T11:32:50.244Z,18.15
2022-08-27T11:35:24.057Z,17.17
2022-08-27T11:38:35.803Z,17.35
2022-08-27T11:41:20.588Z,26.88
2022-08-27T11:43:49.286Z,18.75
2022-08-27T11:46:25.187Z,16.00
2022-08-27T11:48:59.998Z,16.90
2022-08-27T11:51:34.093Z,16.63
2022-08-27T11:54:06.896Z,16.40
2022-08-27T11:56:43.971Z,19.35
2022-08-27T11:59:22.439Z,16.73
2022-08-27T12:01:53.383Z,16.15
2022-08-27T12:04:33.437Z,19.17
2022-08-27T12:07:06.164Z,16.45
2022-08-27T12:09:58.045Z,15.82
2022-08-27T12:12:36.665Z,15.25
2022-08-27T12:15:11.332Z,14.73
2022-08-27T12:17:46.321Z,16.90
2022-08-27T12:20:24.672Z,14.73
2022-08-27T12:23:25.809Z,14.82
2022-08-27T12:26:01.105Z,13.63
2022-08-27T12:28:29.953Z,13.30
2022-08-27T12:30:59.593Z,11.57
2022-08-27T12:33:32.795Z,14.52
2022-08-27T12:36:09.653Z,13.38
2022-08-27T12:38:46.912Z,11.00
2022-08-27T12:41:29.355Z,9.70
2022-08-27T12:44:06.540Z,12.90
2022-08-27T12:46:39.499Z,11.30
2022-08-27T12:49:36.986Z,11.10
2022-08-27T12:52:00.720Z,13.77
2022-08-27T12:54:42.601Z,16.17
2022-08-27T12:57:21.524Z,9.40
2022-08-27T13:00:08.438Z,12.02
2022-08-27T13:03:07.419Z,24.52
2022-08-27T13:05:41.835Z,16.27
2022-08-27T13:08:20.781Z,12.18
2022-08-27T13:10:50.040Z,10.85
2022-08-27T13:13:22.454Z,10.65
2022-08-27T13:15:55.200Z,8.13
2022-08-27T13:18:25.053Z,14.20
2022-08-27T13:21:04.372Z,11.38
2022-08-27T13:23:33.119Z,12.50
2022-08-27T13:26:06.468Z,12.75
2022-08-27T13:28:38.312Z,9.50
2022-08-27T13:31:09.408Z,10.93
2022-08-27T13:33:40.786Z,9.32
2022-08-27T13:36:10.320Z,11.35
2022-08-27T13:38:41.684Z,12.38
2022-08-27T13:41:20.149Z,10.95
2022-08-27T13:43:50.811Z,11.70
2022-08-27T13:46:23.272Z,11.35
2022-08-27T13:48:55.377Z,11.55
2022-08-27T13:51:27.844Z,10.32
2022-08-27T13:54:14.225Z,13.73
2022-08-27T13:56:58.029Z,9.98
2022-08-27T13:59:30.476Z,12.30
2022-08-27T14:02:01.319Z,12.00
2022-08-27T14:04:39.983Z,10.10
2022-08-27T14:07:13.619Z,12.23
2022-08-27T14:09:51.260Z,16.90
2022-08-27T14:12:32.951Z,13.90
2022-08-27T14:15:19.089Z,15.82
2022-08-27T14:17:47.809Z,77.60
2022-08-27T14:20:18.611Z,22.63
2022-08-27T14:22:47.917Z,19.45
2022-08-27T14:25:18.065Z,11.57
2022-08-27T14:27:54.178Z,13.88
2022-08-27T14:30:29.300Z,11.02
2022-08-27T14:33:00.370Z,12.95
2022-08-27T14:35:30.993Z,11.05
2022-08-27T14:38:01.908Z,13.07
2022-08-27T14:40:31.409Z,10.77
2022-08-27T14:43:01.641Z,11.00
2022-08-27T14:45:31.591Z,14.57
2022-08-27T14:48:02.115Z,13.85
2022-08-27T14:50:31.181Z,11.02
2022-08-27T14:52:59.700Z,10.38
2022-08-27T14:55:28.380Z,10.85
2022-08-27T14:57:56.967Z,10.57
2022-08-27T15:00:26.061Z,11.88
2022-08-27T15:02:57.054Z,21.67
2022-08-27T15:05:27.061Z,14.48
2022-08-27T15:07:58.134Z,12.85
2022-08-27T15:10:27.257Z,13.48
2022-08-27T15:12:55.893Z,11.75
2022-08-27T15:15:24.925Z,15.93
2022-08-27T15:17:54.836Z,15.85
2022-08-27T15:20:23.677Z,18.45
2022-08-27T15:22:53.522Z,11.65
2022-08-27T15:25:22.694Z,11.63
2022-08-27T15:27:51.289Z,11.43
2022-08-27T15:30:26.148Z,11.90
2022-08-27T15:32:56.385Z,12.80
2022-08-27T15:35:27.249Z,10.38
2022-08-27T15:37:57.854Z,10.20
2022-08-27T15:40:28.098Z,11.40
2022-08-27T15:42:59.081Z,11.13
2022-08-27T15:45:27.940Z,11.60
2022-08-27T15:47:58.296Z,9.55
2022-08-27T15:50:28.247Z,8.63
2022-08-27T15:53:01.200Z,9.93
2022-08-27T15:55:32.426Z,10.02
2022-08-27T15:58:01.381Z,10.32
2022-08-27T16:00:33.806Z,10.85
2022-08-27T16:03:06.175Z,11.88
2022-08-27T16:05:37.545Z,9.57
2022-08-27T16:08:06.793Z,8.82
2022-08-27T16:10:35.605Z,11.15
2022-08-27T16:13:04.715Z,13.43
2022-08-27T16:15:35.099Z,9.35
2022-08-27T16:18:05.383Z,7.47
2022-08-27T16:20:34.177Z,8.63
2022-08-27T16:23:03.046Z,7.13
2022-08-27T16:25:31.733Z,8.52
2022-08-27T16:28:01.633Z,7.68
2022-08-27T16:30:31.100Z,6.28
2022-08-27T16:32:59.726Z,8.02
2022-08-27T16:35:30.171Z,9.05
2022-08-27T16:37:58.914Z,7.72
2022-08-27T16:40:27.572Z,11.48
2022-08-27T16:42:56.324Z,8.15
2022-08-27T16:45:25.130Z,6.05
2022-08-27T16:48:11.424Z,6.78
2022-08-27T16:50:42.540Z,6.28
2022-08-27T16:53:14.260Z,6.13
2022-08-27T16:55:44.592Z,30.63
2022-08-27T16:58:18.856Z,7.20
2022-08-27T17:00:50.828Z,8.20
2022-08-27T17:03:20.978Z,10.70
2022-08-27T17:05:51.175Z,9.15
2022-08-27T17:08:26.063Z,10.10
2022-08-27T17:10:57.401Z,5.30
2022-08-27T17:13:28.879Z,5.70
2022-08-27T17:15:58.045Z,7.82
2022-08-27T17:18:28.237Z,6.00
2022-08-27T17:21:00.262Z,5.97
2022-08-27T17:23:34.315Z,6.22
2022-08-27T17:26:05.050Z,5.43
2022-08-27T17:28:34.025Z,5.25
2022-08-27T17:31:03.717Z,5.35
2022-08-27T17:33:36.994Z,6.00
2022-08-27T17:36:08.318Z,7.03
2022-08-27T17:38:38.717Z,6.28
2022-08-27T17:41:14.415Z,4.20
2022-08-27T17:43:43.767Z,4.97
2022-08-27T17:46:13.732Z,6.10
2022-08-27T17:48:42.774Z,5.40
2022-08-27T17:51:13.644Z,6.30
2022-08-27T17:53:47.921Z,5.65
2022-08-27T17:56:18.029Z,6.65
2022-08-27T17:58:46.987Z,5.78
2022-08-27T18:01:16.685Z,5.10
2022-08-27T18:03:47.962Z,6.63
2022-08-27T18:06:18.133Z,6.07
2022-08-27T18:08:48.005Z,4.03
2022-08-27T18:11:17.049Z,8.50
2022-08-27T18:13:48.548Z,4.20
2022-08-27T18:16:17.217Z,6.85
2022-08-27T18:18:45.733Z,3.30
2022-08-27T18:21:14.375Z,8.05
2022-08-27T18:23:55.790Z,4.43
2022-08-27T18:26:28.662Z,5.72
2022-08-27T18:28:58.034Z,6.57
2022-08-27T18:31:29.946Z,8.20
2022-08-27T18:33:59.541Z,4.22
2022-08-27T18:36:28.985Z,4.32
2022-08-27T18:38:59.212Z,6.20
2022-08-27T18:41:31.557Z,6.28
2022-08-27T18:44:00.271Z,4.57
2022-08-27T18:46:29.079Z,5.18
2022-08-27T18:48:57.684Z,3.95
2022-08-27T18:51:26.358Z,5.53
2022-08-27T18:54:01.521Z,4.93
2022-08-27T18:56:30.217Z,3.55
2022-08-27T18:58:58.739Z,4.85
2022-08-27T19:01:28.465Z,5.28
2022-08-27T19:03:58.167Z,4.80
2022-08-27T19:06:26.721Z,3.45
2022-08-27T19:08:55.577Z,6.18
2022-08-27T19:11:25.674Z,5.03
2022-08-27T19:13:54.323Z,7.07
2022-08-27T19:16:29.440Z,5.68
2022-08-27T19:18:58.288Z,5.43
2022-08-27T19:21:26.822Z,6.97
2022-08-27T19:23:55.941Z,6.03
2022-08-27T19:26:27.423Z,4.40
2022-08-27T19:28:56.054Z,4.50
2022-08-27T19:31:24.611Z,8.15
2022-08-27T19:33:53.856Z,4.70
2022-08-27T19:36:23.358Z,3.20
2022-08-27T19:38:54.878Z,6.35
2022-08-27T19:41:27.778Z,3.58
2022-08-27T19:43:56.802Z,4.80
2022-08-27T19:46:26.961Z,4.25
2022-08-27T19:48:55.795Z,4.43
2022-08-27T19:51:24.526Z,4.10
2022-08-27T19:53:53.047Z,3.35
2022-08-27T19:56:21.989Z,4.35
2022-08-27T19:58:56.823Z,3.53
2022-08-27T20:01:27.257Z,5.03
2022-08-27T20:03:58.043Z,3.60
2022-08-27T20:06:28.275Z,3.00
2022-08-27T20:08:56.832Z,6.70
2022-08-27T20:11:25.549Z,4.35
2022-08-27T20:13:56.213Z,3.78
2022-08-27T20:16:24.757Z,4.80
2022-08-27T20:18:58.319Z,4.57
2022-08-27T20:21:28.804Z,4.47
2022-08-27T20:23:57.318Z,5.90
2022-08-27T20:26:26.113Z,2.83
2022-08-27T20:28:56.213Z,5.35
2022-08-27T20:31:25.159Z,5.07
2022-08-27T20:33:54.194Z,5.78
2022-08-27T20:36:26.058Z,5.63
2022-08-27T20:38:54.880Z,4.13
2022-08-27T20:41:23.993Z,4.55
2022-08-27T20:43:52.683Z,4.97
2022-08-27T20:46:26.050Z,3.97
2022-08-27T20:49:04.430Z,4.25
2022-08-27T20:51:51.131Z,7.88
2022-08-27T20:54:22.100Z,4.25
2022-08-27T20:56:52.091Z,8.18
2022-08-27T20:59:39.299Z,4.65
2022-08-27T21:02:11.949Z,4.70
2022-08-27T21:04:43.074Z,4.45
2022-08-27T21:07:11.648Z,4.53
2022-08-27T21:09:51.915Z,3.28
2022-08-27T21:12:27.220Z,4.15
2022-08-27T21:14:56.658Z,4.63
2022-08-27T21:17:29.796Z,4.95
2022-08-27T21:19:58.401Z,4.72
2022-08-27T21:22:27.135Z,7.45
2022-08-27T21:24:55.680Z,3.35
2022-08-27T21:27:24.305Z,3.78
2022-08-27T21:29:53.226Z,3.95
2022-08-27T21:32:21.851Z,4.80
2022-08-27T21:34:52.210Z,11.00
2022-08-27T21:37:20.821Z,4.40
2022-08-27T21:39:49.588Z,5.30
2022-08-27T21:42:19.510Z,4.45
2022-08-27T21:44:49.476Z,4.90
2022-08-27T21:47:18.380Z,4.25
2022-08-27T21:49:47.752Z,3.40
2022-08-27T21:52:17.822Z,3.58
2022-08-27T21:54:46.473Z,4.25
2022-08-27T21:57:16.465Z,4.43
2022-08-27T21:59:47.132Z,4.05
2022-08-27T22:05:06.198Z,4.75
2022-08-27T22:07:36.395Z,3.42
2022-08-27T22:10:05.857Z,5.40
2022-08-27T22:12:34.468Z,4.53
2022-08-27T22:15:03.594Z,3.08
2022-08-27T22:17:32.252Z,7.20
2022-08-27T22:20:00.792Z,5.53
2022-08-27T22:22:30.713Z,3.58
2022-08-27T22:25:00.841Z,6.13
2022-08-27T22:27:29.398Z,4.93
2022-08-27T22:29:57.929Z,3.65
2022-08-27T22:32:26.514Z,6.70
2022-08-27T22:34:55.059Z,3.80
2022-08-27T22:37:23.689Z,7.15
2022-08-27T22:39:52.488Z,5.72
2022-08-27T22:42:22.860Z,4.13
2022-08-27T22:44:51.393Z,3.80
2022-08-27T22:47:20.008Z,5.47
2022-08-27T22:49:48.551Z,6.43
2022-08-27T22:52:23.237Z,7.97
2022-08-27T22:54:56.962Z,6.03
2022-08-27T22:57:27.142Z,5.22
2022-08-27T22:59:55.682Z,6.60
2022-08-27T23:02:24.259Z,5.03
2022-08-27T23:04:55.567Z,4.45
2022-08-27T23:07:25.222Z,5.47
2022-08-27T23:09:53.968Z,5.35
2022-08-27T23:12:23.173Z,3.67
2022-08-27T23:14:53.085Z,4.95
2022-08-27T23:17:22.035Z,5.70
2022-08-27T23:19:50.547Z,4.72
2022-08-27T23:22:19.215Z,7.32
2022-08-27T23:25:05.090Z,6.28
2022-08-27T23:27:34.115Z,3.78
2022-08-27T23:30:05.913Z,4.22
2022-08-27T23:32:34.523Z,5.45
2022-08-27T23:35:03.240Z,5.15
2022-08-27T23:37:31.942Z,5.90
2022-08-27T23:40:00.565Z,5.63
2022-08-27T23:42:29.416Z,7.57
2022-08-27T23:44:58.229Z,6.40
2022-08-27T23:47:28.170Z,5.50
2022-08-27T23:49:56.740Z,7.68
2022-08-27T23:52:25.286Z,5.00
2022-08-27T23:54:54.165Z,4.20
2022-08-27T23:57:22.710Z,4.53
2022-08-27T23:59:51.277Z,3.80
